Basauri, Spain
Current Conditions -  °F | °C
As of 2:30 PM on Wednesday 22 Oct 2014 (Local Time) from LEBB Reporting Station
Scattered Clouds Scattered Clouds  
Wind Chill: 66°   Ceiling: Unl
Heat Index: 66°   Visibility: 6mi
Dew Point: 50°   Wind: 7mph
Humidity: 56%   Direction: 30°NNE
Pressure: 30.45"   Gusts: NA
Location:  43.24°N, 2.89°W
Report Text: LEBB 221230Z 03006KT 340V080 9999 FEW030 SCT048 19/10 Q1031 NOSIG
Loading
Personal Weather Stations






























Interactive Weather Map
Tropical Storm Tracking
New forecast layout! Learn more

10-Day Weather Forecast

Advertisements
Track Severe Weather on mobile